Time;durP1;ratioP1;P1;durP2;ratioP2;P2;SDS_P1;SDS_P2;PMS_P1;PMS_P2;Temp;Humidity;BMP_temperature;BMP_pressure;BME280_temperature;BME280_humidity;BME280_pressure;Samples;Min_cycle;Max_cycle;Signal;HPM_P1;HPM_P2
2021/11/28 06:02:45;;;;;;;11.57;6.10;;;2.50;99.90;;;;;;4950684;26;20347;-77
2021/11/28 06:05:13;;;;;;;13.80;7.20;;;2.50;99.90;;;;;;4973350;28;20208;-77
2021/11/28 06:07:41;;;;;;;15.07;7.97;;;2.50;99.90;;;;;;4972838;28;20062;-76
2021/11/28 06:10:09;;;;;;;13.38;7.90;;;2.50;99.90;;;;;;4973031;28;20138;-80
2021/11/28 06:12:37;;;;;;;11.75;6.85;;;2.50;99.90;;;;;;4972608;28;20054;-79
2021/11/28 06:15:06;;;;;;;10.40;5.75;;;2.50;99.90;;;;;;4973000;28;20174;-79
2021/11/28 06:17:33;;;;;;;9.55;4.88;;;2.50;99.90;;;;;;4972891;28;20082;-79
2021/11/28 06:20:01;;;;;;;10.13;5.65;;;2.50;99.90;;;;;;4972743;28;20053;-79
2021/11/28 06:22:29;;;;;;;7.72;4.88;;;2.50;99.90;;;;;;4973035;28;20137;-79
2021/11/28 06:24:56;;;;;;;10.50;4.85;;;2.50;99.90;;;;;;4966116;28;20500;-77
2021/11/28 06:27:23;;;;;;;6.97;3.75;;;2.50;99.90;;;;;;4970120;28;20133;-79
2021/11/28 06:29:50;;;;;;;8.43;3.55;;;2.60;99.90;;;;;;4967221;28;20047;-77
2021/11/28 06:32:18;;;;;;;8.40;3.70;;;2.60;99.90;;;;;;4971263;28;20046;-77
2021/11/28 06:34:46;;;;;;;7.47;3.58;;;2.60;99.90;;;;;;4968258;28;20137;-78
2021/11/28 06:37:15;;;;;;;7.18;3.67;;;2.60;99.90;;;;;;4976651;28;20129;-77
2021/11/28 06:39:42;;;;;;;7.80;3.72;;;2.60;99.90;;;;;;4976530;28;20055;-78
2021/11/28 06:42:10;;;;;;;5.75;3.13;;;2.70;99.90;;;;;;4976463;28;20055;-79
2021/11/28 06:44:37;;;;;;;6.57;3.25;;;2.60;99.90;;;;;;4976098;28;20510;-79
2021/11/28 06:47:04;;;;;;;7.63;2.97;;;2.60;99.90;;;;;;4969352;28;20139;-78
2021/11/28 06:49:31;;;;;;;6.13;3.20;;;2.60;99.90;;;;;;4976537;28;20047;-80
2021/11/28 06:51:59;;;;;;;6.72;2.72;;;2.60;99.90;;;;;;4976449;28;20053;-77
2021/11/28 06:54:28;;;;;;;6.22;2.90;;;2.70;99.90;;;;;;4976140;28;20130;-77
2021/11/28 06:56:55;;;;;;;5.43;2.83;;;2.70;99.90;;;;;;4976312;28;20039;-77
2021/11/28 06:59:22;;;;;;;6.05;3.00;;;2.70;99.90;;;;;;4969725;28;20131;-77
2021/11/28 07:01:50;;;;;;;5.50;2.92;;;2.70;99.90;;;;;;4972357;28;20054;-78
2021/11/28 07:04:17;;;;;;;5.03;2.67;;;2.80;99.90;;;;;;4976181;28;20061;-77
2021/11/28 07:06:44;;;;;;;5.57;3.17;;;2.80;99.90;;;;;;4971049;28;20587;-78
2021/11/28 07:09:11;;;;;;;7.70;3.30;;;2.90;99.90;;;;;;4976011;28;20043;-78
2021/11/28 07:11:40;;;;;;;6.05;2.83;;;2.90;99.90;;;;;;4975462;28;20054;-78
2021/11/28 07:14:08;;;;;;;4.85;2.60;;;2.90;99.90;;;;;;4975807;28;20070;-78
2021/11/28 07:16:35;;;;;;;5.35;2.38;;;2.90;99.90;;;;;;4975564;28;20134;-79
2021/11/28 07:19:02;;;;;;;5.45;2.70;;;3.00;99.90;;;;;;4972194;28;20064;-79
2021/11/28 07:21:29;;;;;;;6.18;2.80;;;3.00;99.90;;;;;;4975751;28;20480;-78
2021/11/28 07:23:56;;;;;;;6.78;3.13;;;3.10;99.90;;;;;;4975079;28;20129;-78
2021/11/28 07:26:23;;;;;;;7.25;2.92;;;3.10;99.90;;;;;;4975342;28;20065;-77
2021/11/28 07:28:54;;;;;;;6.68;3.10;;;3.10;99.90;;;;;;4975215;28;20042;-79
2021/11/28 07:31:21;;;;;;;7.65;3.20;;;3.10;99.90;;;;;;4975724;28;20121;-81
2021/11/28 07:33:48;;;;;;;7.25;3.20;;;3.10;99.90;;;;;;4974914;28;20086;-81
2021/11/28 07:36:15;;;;;;;6.78;3.33;;;3.20;99.90;;;;;;4975504;28;20137;-78
2021/11/28 07:38:44;;;;;;;7.53;3.60;;;3.20;99.90;;;;;;4975208;28;20061;-79
2021/11/28 07:41:12;;;;;;;8.18;4.57;;;3.20;99.90;;;;;;4973725;28;20455;-78
2021/11/28 07:43:39;;;;;;;8.60;4.72;;;3.20;99.90;;;;;;4968757;28;20047;-79
2021/11/28 07:46:08;;;;;;;9.48;5.20;;;3.30;99.90;;;;;;4975575;28;20051;-79
2021/11/28 07:48:36;;;;;;;11.05;5.75;;;3.30;99.90;;;;;;4974736;28;20208;-78
2021/11/28 07:51:03;;;;;;;9.98;5.40;;;3.30;99.90;;;;;;4968342;28;20046;-78
2021/11/28 07:53:30;;;;;;;9.27;5.82;;;3.30;99.90;;;;;;4963951;28;20491;-77
2021/11/28 07:55:57;;;;;;;8.35;4.93;;;3.30;99.90;;;;;;4965789;28;20450;-79
2021/11/28 07:58:24;;;;;;;8.73;5.28;;;3.30;99.90;;;;;;4971220;28;20490;-79
2021/11/28 08:00:52;;;;;;;8.50;4.95;;;3.30;99.90;;;;;;4974733;28;20571;-77
2021/11/28 08:03:21;;;;;;;11.70;5.78;;;3.30;99.90;;;;;;4975022;28;20122;-79
2021/11/28 08:05:48;;;;;;;8.63;5.32;;;3.30;99.90;;;;;;4974865;28;20074;-79
2021/11/28 08:08:16;;;;;;;9.20;5.32;;;3.30;99.90;;;;;;4970913;28;20134;-77
2021/11/28 08:10:44;;;;;;;9.00;5.45;;;3.30;99.90;;;;;;4974003;28;20059;-78
2021/11/28 08:13:11;;;;;;;11.27;5.80;;;3.30;99.90;;;;;;4974516;28;20133;-76
2021/11/28 08:15:38;;;;;;;11.50;6.75;;;3.30;99.90;;;;;;4972724;28;20086;-82
2021/11/28 08:18:05;;;;;;;9.95;6.00;;;3.30;99.90;;;;;;4974196;28;20461;-80
2021/11/28 08:20:34;;;;;;;14.07;6.85;;;3.30;99.90;;;;;;4973888;28;20500;-80
2021/11/28 08:23:03;;;;;;;12.63;6.95;;;3.30;99.90;;;;;;4974291;28;20043;-80
2021/11/28 08:25:30;;;;;;;13.88;7.20;;;3.30;99.90;;;;;;4974475;28;20050;-80
2021/11/28 08:27:58;;;;;;;14.35;7.72;;;3.30;99.90;;;;;;4957345;28;20149;-80
2021/11/28 08:30:25;;;;;;;13.07;8.05;;;3.30;99.90;;;;;;4974046;28;20137;-80
2021/11/28 08:32:52;;;;;;;12.65;7.57;;;3.30;99.90;;;;;;4972964;28;20053;-81
2021/11/28 08:35:22;;;;;;;12.85;7.68;;;3.30;99.90;;;;;;4973070;28;20063;-81
2021/11/28 08:37:51;;;;;;;13.65;7.57;;;3.30;99.90;;;;;;4973727;28;20047;-80
2021/11/28 08:40:20;;;;;;;13.07;7.55;;;3.30;99.90;;;;;;4974189;28;20086;-81
2021/11/28 08:42:47;;;;;;;12.48;6.80;;;3.30;99.90;;;;;;4973757;28;20492;-83
2021/11/28 08:45:15;;;;;;;13.60;7.35;;;3.40;99.90;;;;;;4968385;28;20407;-79
2021/11/28 08:47:42;;;;;;;12.32;7.10;;;3.30;99.90;;;;;;4973803;28;20137;-80
2021/11/28 08:50:14;;;;;;;13.00;7.30;;;3.30;99.90;;;;;;4971201;28;20057;-80
2021/11/28 08:52:43;;;;;;;13.30;7.22;;;3.40;99.90;;;;;;4972763;28;20054;-79
2021/11/28 08:55:11;;;;;;;13.18;6.85;;;3.40;99.90;;;;;;4972835;28;20081;-78
2021/11/28 08:57:39;;;;;;;13.15;7.22;;;3.40;99.90;;;;;;4972435;28;20066;-78
2021/11/28 09:00:09;;;;;;;13.82;6.97;;;3.50;99.90;;;;;;4974114;28;20121;-78
2021/11/28 09:02:36;;;;;;;14.20;7.60;;;3.50;99.90;;;;;;4972687;28;20124;-79
2021/11/28 09:05:05;;;;;;;11.90;6.72;;;3.50;99.90;;;;;;4973121;28;20046;-78
2021/11/28 09:07:32;;;;;;;13.23;7.13;;;3.60;99.90;;;;;;4973503;28;20047;-78
2021/11/28 09:09:59;;;;;;;15.68;8.27;;;3.60;99.90;;;;;;4969902;28;20068;-78
2021/11/28 09:12:27;;;;;;;27.42;13.82;;;3.60;99.90;;;;;;4972107;28;20050;-79
2021/11/28 09:14:56;;;;;;;41.05;20.08;;;3.60;99.90;;;;;;4972611;28;20046;-81
2021/11/28 09:17:23;;;;;;;37.60;18.85;;;3.60;99.90;;;;;;4973039;28;20125;-79
2021/11/28 09:19:54;;;;;;;29.85;15.27;;;3.70;99.90;;;;;;4973466;28;20135;-78
2021/11/28 09:22:34;;;;;;;17.92;9.40;;;3.70;99.90;;;;;;4973419;28;20043;-78
2021/11/28 09:25:01;;;;;;;13.38;7.88;;;3.80;99.90;;;;;;4973852;28;20050;-79
2021/11/28 09:27:30;;;;;;;12.13;7.28;;;3.80;99.90;;;;;;4973191;28;20594;-78
2021/11/28 09:29:57;;;;;;;11.23;6.63;;;3.80;99.90;;;;;;4973368;28;20394;-78
2021/11/28 09:32:24;;;;;;;12.38;7.35;;;3.80;99.90;;;;;;4972411;28;20129;-81
2021/11/28 09:34:51;;;;;;;12.50;7.07;;;3.90;99.90;;;;;;4972996;28;20054;-81
2021/11/28 09:37:18;;;;;;;11.43;6.45;;;3.90;99.90;;;;;;4973339;28;20082;-80
2021/11/28 09:39:46;;;;;;;11.00;6.38;;;3.90;99.90;;;;;;4973341;28;20082;-81
2021/11/28 09:42:21;;;;;;;11.63;6.60;;;3.90;99.90;;;;;;4973248;28;20050;-81
2021/11/28 09:44:50;;;;;;;11.55;7.00;;;3.90;99.90;;;;;;4972934;28;20075;-80
2021/11/28 09:47:18;;;;;;;10.90;6.57;;;4.00;99.90;;;;;;4971605;28;20423;-80
2021/11/28 09:49:46;;;;;;;9.48;5.60;;;4.00;99.90;;;;;;4972349;28;20061;-80
2021/11/28 09:52:19;;;;;;;10.00;5.43;;;4.00;99.90;;;;;;4972249;28;20552;-80
2021/11/28 09:54:47;;;;;;;9.50;5.30;;;4.00;99.90;;;;;;4966424;28;20538;-81
2021/11/28 09:57:19;;;;;;;9.70;5.45;;;4.10;99.90;;;;;;4973244;28;20149;-83
2021/11/28 09:59:49;;;;;;;8.82;5.03;;;4.10;99.90;;;;;;4972739;28;20049;-81
2021/11/28 10:02:21;;;;;;;8.88;5.32;;;4.10;99.90;;;;;;4972872;28;20046;-80
2021/11/28 10:04:49;;;;;;;9.77;5.00;;;4.20;99.90;;;;;;4971947;28;20050;-83
2021/11/28 10:07:17;;;;;;;8.75;5.03;;;4.20;99.90;;;;;;4972434;28;20130;-82
2021/11/28 10:09:46;;;;;;;9.20;5.30;;;4.20;99.90;;;;;;4972292;28;20054;-81
2021/11/28 10:12:21;;;;;;;12.38;7.10;;;4.20;99.90;;;;;;4972167;28;20130;-80
2021/11/28 10:14:52;;;;;;;12.13;6.90;;;4.20;99.90;;;;;;4972974;28;20082;-79
2021/11/28 10:17:21;;;;;;;12.93;7.93;;;4.20;99.90;;;;;;4972308;28;20457;-79
2021/11/28 10:19:49;;;;;;;14.02;7.93;;;4.20;99.90;;;;;;4972110;28;20090;-78
2021/11/28 10:22:16;;;;;;;11.35;6.88;;;4.20;99.90;;;;;;4972339;28;20051;-78
2021/11/28 10:25:00;;;;;;;12.10;7.25;;;4.20;99.90;;;;;;4972640;28;20074;-78
2021/11/28 10:27:40;;;;;;;11.95;6.60;;;4.20;99.90;;;;;;4964363;28;20055;-78
2021/11/28 10:30:13;;;;;;;11.60;6.70;;;4.20;99.90;;;;;;4967594;28;20047;-79
2021/11/28 10:32:50;;;;;;;16.63;8.55;;;4.20;99.90;;;;;;4968908;28;20057;-79
2021/11/28 10:35:19;;;;;;;14.85;7.35;;;4.20;99.90;;;;;;4971299;28;20051;-77
2021/11/28 10:37:49;;;;;;;12.13;6.80;;;4.20;99.90;;;;;;4971143;28;20051;-77
2021/11/28 10:40:22;;;;;;;8.95;5.35;;;4.20;99.90;;;;;;4971205;28;20062;-80
2021/11/28 10:42:52;;;;;;;9.07;4.20;;;4.20;99.90;;;;;;4971835;28;20051;-79
2021/11/28 10:45:23;;;;;;;9.45;4.28;;;4.20;99.90;;;;;;4972325;28;20051;-79
2021/11/28 10:47:53;;;;;;;6.82;3.67;;;4.20;99.90;;;;;;4972369;28;20055;-81
2021/11/28 10:50:23;;;;;;;6.47;3.78;;;4.20;99.90;;;;;;4974491;28;20134;-90
2021/11/28 10:52:53;;;;;;;8.38;3.58;;;4.20;99.90;;;;;;4976768;28;20043;-90
2021/11/28 10:55:25;;;;;;;7.47;3.40;;;4.20;99.90;;;;;;4976748;28;20055;-88
2021/11/28 10:58:09;;;;;;;6.20;2.67;;;4.30;99.90;;;;;;4959493;28;20453;-96
2021/11/28 11:00:40;;;;;;;5.97;3.07;;;4.30;99.90;;;;;;4973546;28;20483;-81
2021/11/28 11:03:17;;;;;;;6.72;3.20;;;4.30;99.90;;;;;;4973309;28;20389;-82
2021/11/28 11:05:45;;;;;;;6.55;2.85;;;4.30;99.90;;;;;;4972833;28;20062;-81
2021/11/28 11:08:15;;;;;;;5.35;2.80;;;4.30;99.90;;;;;;4973920;28;20460;-81
2021/11/28 11:10:45;;;;;;;4.70;2.55;;;4.40;99.70;;;;;;4972554;28;20149;-80
2021/11/28 11:13:15;;;;;;;6.68;2.72;;;4.30;99.70;;;;;;4969383;28;20057;-82
2021/11/28 11:15:46;;;;;;;5.80;2.80;;;4.30;99.80;;;;;;4967165;28;20051;-80
2021/11/28 11:18:16;;;;;;;5.15;2.58;;;4.30;99.60;;;;;;4976305;28;20054;-82
2021/11/28 11:20:44;;;;;;;5.18;2.70;;;4.30;99.70;;;;;;4968231;28;20073;-77
2021/11/28 11:23:36;;;;;;;4.93;2.60;;;4.30;99.80;;;;;;4973396;28;20138;-83
2021/11/28 11:26:21;;;;;;;5.45;2.70;;;4.30;99.80;;;;;;4974308;28;20058;-81
2021/11/28 11:29:06;;;;;;;6.50;2.67;;;4.30;99.70;;;;;;4975438;28;20051;-79
2021/11/28 11:31:36;;;;;;;5.18;2.78;;;4.30;99.70;;;;;;4975747;28;20050;-79
2021/11/28 11:34:03;;;;;;;5.25;2.67;;;4.40;99.60;;;;;;4971055;28;20055;-80
2021/11/28 11:36:55;;;;;;;5.75;3.15;;;4.30;99.50;;;;;;4971379;28;20051;-81
2021/11/28 11:39:25;;;;;;;6.72;3.00;;;4.40;99.40;;;;;;4957320;28;20054;-78
2021/11/28 11:41:52;;;;;;;26.23;6.28;;;4.40;99.40;;;;;;4971081;28;20050;-78
2021/11/28 11:44:20;;;;;;;13.05;4.43;;;4.40;99.70;;;;;;4971500;28;20419;-79
2021/11/28 11:46:48;;;;;;;6.65;2.80;;;4.50;99.90;;;;;;4970387;28;20050;-78
2021/11/28 11:49:16;;;;;;;7.50;3.75;;;4.50;99.90;;;;;;4968012;28;20551;-77
2021/11/28 11:51:46;;;;;;;8.18;3.75;;;4.60;99.80;;;;;;4970388;28;20053;-79
2021/11/28 11:54:22;;;;;;;7.25;4.00;;;4.60;99.70;;;;;;4971272;28;20051;-78
2021/11/28 11:56:57;;;;;;;6.63;3.60;;;4.70;99.60;;;;;;4971293;28;20492;-78
2021/11/28 11:59:35;;;;;;;5.63;2.78;;;4.70;99.50;;;;;;4970610;28;20047;-79
2021/11/28 12:02:07;;;;;;;7.00;3.00;;;4.70;99.50;;;;;;4956312;28;20130;-79
2021/11/28 12:04:42;;;;;;;6.40;3.10;;;4.70;99.50;;;;;;4970665;28;20134;-80
2021/11/28 12:07:10;;;;;;;7.38;2.95;;;4.70;99.20;;;;;;4970852;28;20051;-79
2021/11/28 12:09:38;;;;;;;6.45;2.90;;;4.80;99.20;;;;;;4970850;28;20097;-78
2021/11/28 12:12:09;;;;;;;5.70;2.60;;;4.70;99.10;;;;;;4970289;28;20042;-80
2021/11/28 12:14:37;;;;;;;6.40;3.00;;;4.70;98.80;;;;;;4970500;28;20059;-80
2021/11/28 12:17:42;;;;;;;7.03;3.35;;;4.70;98.60;;;;;;4955830;28;20411;-79
2021/11/28 12:20:10;;;;;;;7.15;2.60;;;4.60;98.60;;;;;;4968534;28;20051;-79
2021/11/28 12:22:48;;;;;;;5.20;2.38;;;4.60;98.60;;;;;;4970550;28;20484;-80
2021/11/28 12:25:41;;;;;;;5.72;2.53;;;4.50;98.90;;;;;;4969583;28;20057;-74
2021/11/28 12:28:29;;;;;;;5.82;2.63;;;4.50;99.00;;;;;;4967437;28;20134;-78
2021/11/28 12:30:59;;;;;;;5.55;2.60;;;4.50;98.90;;;;;;4969728;28;20130;-76
2021/11/28 12:34:03;;;;;;;5.68;2.72;;;4.50;99.00;;;;;;4970127;28;20146;-76
2021/11/28 12:36:46;;;;;;;4.80;2.10;;;4.50;99.10;;;;;;4967643;28;20087;-76
2021/11/28 12:39:38;;;;;;;5.47;2.55;;;4.50;99.20;;;;;;4970621;28;20053;-76
2021/11/28 12:42:08;;;;;;;10.07;4.53;;;4.50;99.30;;;;;;4963868;28;20492;-75
2021/11/28 12:44:38;;;;;;;9.98;3.70;;;4.50;99.10;;;;;;4969102;28;20058;-76
2021/11/28 12:47:21;;;;;;;7.32;2.75;;;4.50;98.80;;;;;;4969484;28;20134;-77
2021/11/28 12:49:52;;;;;;;12.32;5.72;;;4.60;99.00;;;;;;4965927;28;20150;-75
2021/11/28 12:52:42;;;;;;;13.32;6.85;;;4.60;99.30;;;;;;4968123;28;20046;-75
2021/11/28 12:55:28;;;;;;;17.10;7.75;;;4.70;99.50;;;;;;4962766;28;20055;-78
2021/11/28 12:58:09;;;;;;;19.85;9.40;;;4.80;99.30;;;;;;4966938;28;20526;-75
2021/11/28 13:00:50;;;;;;;11.50;6.47;;;4.90;99.30;;;;;;4969814;28;20059;-76
2021/11/28 13:03:24;;;;;;;9.32;4.70;;;4.90;98.70;;;;;;4975156;28;20055;-85
2021/11/28 13:05:55;;;;;;;7.03;3.30;;;4.90;98.70;;;;;;4970979;28;20054;-84
2021/11/28 13:08:37;;;;;;;5.47;3.08;;;5.00;98.50;;;;;;4971049;28;20086;-85
2021/11/28 13:11:13;;;;;;;6.20;3.10;;;5.00;98.40;;;;;;4971184;28;20622;-85
2021/11/28 13:13:45;;;;;;;7.85;3.35;;;5.00;98.60;;;;;;4969172;28;20145;-79
2021/11/28 13:16:22;;;;;;;6.63;2.92;;;5.00;98.50;;;;;;4968469;28;20051;-78
2021/11/28 13:18:53;;;;;;;5.68;2.90;;;5.00;98.50;;;;;;4966258;28;20416;-79
2021/11/28 13:21:26;;;;;;;7.18;2.78;;;5.10;98.30;;;;;;4968546;28;20078;-80
2021/11/28 13:23:55;;;;;;;6.13;3.05;;;5.10;98.20;;;;;;4951368;28;20642;-79
2021/11/28 13:26:25;;;;;;;5.53;3.00;;;5.10;98.30;;;;;;4969200;28;20121;-77
2021/11/28 13:28:57;;;;;;;8.30;3.45;;;5.10;98.30;;;;;;4969612;28;20054;-76
2021/11/28 13:31:25;;;;;;;5.68;2.60;;;5.10;98.30;;;;;;4969382;28;20080;-76
2021/11/28 13:33:58;;;;;;;5.25;2.38;;;5.10;98.20;;;;;;4969141;28;20038;-76
2021/11/28 13:36:41;;;;;;;4.90;2.50;;;5.20;98.10;;;;;;4966077;28;20058;-79
2021/11/28 13:39:11;;;;;;;4.43;2.45;;;5.20;97.70;;;;;;4956066;28;20043;-78
2021/11/28 13:41:38;;;;;;;5.88;2.67;;;5.20;97.40;;;;;;4969592;28;20051;-78
2021/11/28 13:44:10;;;;;;;5.40;2.30;;;5.20;97.50;;;;;;4969210;28;20050;-77
2021/11/28 13:46:40;;;;;;;5.25;2.42;;;5.20;97.70;;;;;;4955812;28;20051;-79
2021/11/28 13:49:09;;;;;;;8.20;3.30;;;5.20;97.80;;;;;;4965732;28;20049;-78
2021/11/28 13:51:46;;;;;;;15.50;7.28;;;5.20;98.00;;;;;;4968965;28;20065;-77
2021/11/28 13:54:17;;;;;;;11.35;4.82;;;5.30;97.80;;;;;;4969187;28;20079;-79
2021/11/28 13:56:49;;;;;;;6.97;2.72;;;5.30;97.80;;;;;;4969251;28;20187;-77
2021/11/28 13:59:19;;;;;;;4.55;2.50;;;5.30;97.50;;;;;;4967055;28;20524;-76
2021/11/28 14:01:47;;;;;;;5.25;2.42;;;5.30;97.40;;;;;;4969035;28;20060;-79
2021/11/28 14:04:22;;;;;;;5.68;2.72;;;5.30;97.00;;;;;;4968189;28;20049;-76
2021/11/28 14:06:51;;;;;;;4.47;2.08;;;5.40;97.10;;;;;;4968572;28;20054;-77
2021/11/28 14:09:19;;;;;;;4.10;2.08;;;5.40;97.20;;;;;;4968505;28;20447;-79
2021/11/28 14:11:48;;;;;;;4.28;2.25;;;5.40;97.00;;;;;;4967411;28;20086;-77
2021/11/28 14:14:17;;;;;;;4.45;2.22;;;5.40;97.00;;;;;;4967807;28;20058;-78
2021/11/28 14:16:54;;;;;;;4.40;2.20;;;5.40;96.80;;;;;;4967943;28;20047;-78
2021/11/28 14:19:37;;;;;;;4.95;2.20;;;5.40;96.80;;;;;;4970116;28;20053;-78
2021/11/28 14:22:24;;;;;;;5.60;2.20;;;5.50;96.70;;;;;;4975506;28;20055;-77
2021/11/28 14:24:51;;;;;;;4.95;2.38;;;5.50;96.60;;;;;;4968309;28;20101;-80
2021/11/28 14:27:22;;;;;;;4.50;2.47;;;5.50;96.30;;;;;;4968643;28;20129;-78
2021/11/28 14:30:00;;;;;;;4.18;2.05;;;5.40;96.40;;;;;;4968051;28;21780;-74
2021/11/28 14:32:28;;;;;;;5.07;2.38;;;5.40;96.40;;;;;;4959976;28;20412;-79
2021/11/28 14:35:21;;;;;;;3.95;2.00;;;5.40;96.40;;;;;;4967943;28;20051;-78
2021/11/28 14:38:16;;;;;;;5.00;2.20;;;5.30;96.20;;;;;;4969918;28;20053;-76
2021/11/28 14:40:45;;;;;;;5.15;2.20;;;5.30;96.10;;;;;;4968314;28;20134;-75
2021/11/28 14:43:12;;;;;;;3.70;2.03;;;5.20;96.00;;;;;;4965194;28;20135;-75
2021/11/28 14:45:39;;;;;;;4.65;2.30;;;5.10;96.20;;;;;;4979585;28;20050;-75
2021/11/28 14:48:18;;;;;;;4.25;1.90;;;5.10;96.50;;;;;;4971130;28;20058;-76
2021/11/28 14:50:50;;;;;;;3.95;1.73;;;5.00;96.80;;;;;;4968560;28;20138;-74
2021/11/28 14:53:19;;;;;;;4.45;2.22;;;5.00;96.90;;;;;;4967623;28;20579;-78
2021/11/28 14:55:49;;;;;;;4.63;2.17;;;5.00;97.20;;;;;;4971229;28;20047;-76
2021/11/28 14:58:41;;;;;;;3.95;2.00;;;5.00;97.10;;;;;;4972378;28;20042;-74
2021/11/28 15:01:16;;;;;;;4.82;2.30;;;5.00;97.10;;;;;;4952694;28;20142;-75
2021/11/28 15:04:09;;;;;;;5.38;2.38;;;4.90;97.00;;;;;;4971818;28;20051;-76
2021/11/28 15:06:59;;;;;;;6.13;2.63;;;5.00;97.20;;;;;;4965055;28;20073;-75
2021/11/28 15:09:32;;;;;;;6.05;2.95;;;4.90;97.20;;;;;;4964540;28;20050;-77
2021/11/28 15:12:01;;;;;;;4.65;2.40;;;4.90;97.20;;;;;;4970263;28;20456;-76
2021/11/28 15:14:28;;;;;;;4.70;2.40;;;4.90;97.30;;;;;;4971077;28;20126;-76
2021/11/28 15:16:58;;;;;;;6.15;2.45;;;4.90;97.30;;;;;;4971879;28;20239;-75
2021/11/28 15:19:28;;;;;;;6.05;2.63;;;4.90;97.30;;;;;;4971931;28;20042;-75
2021/11/28 15:21:56;;;;;;;5.15;2.47;;;4.90;97.20;;;;;;4971194;28;20055;-76
2021/11/28 15:24:24;;;;;;;4.45;2.10;;;4.90;97.40;;;;;;4971337;28;20494;-75
2021/11/28 15:26:53;;;;;;;6.20;2.30;;;4.90;97.60;;;;;;4971757;28;20162;-75
2021/11/28 15:29:22;;;;;;;4.47;2.40;;;4.90;97.80;;;;;;4971052;28;20113;-75
2021/11/28 15:31:51;;;;;;;5.32;2.60;;;4.90;97.90;;;;;;4971488;28;20050;-75
2021/11/28 15:34:18;;;;;;;4.63;2.28;;;4.80;97.80;;;;;;4971251;28;20046;-76
2021/11/28 15:36:50;;;;;;;7.25;2.88;;;4.90;97.90;;;;;;4970783;28;20125;-78
2021/11/28 15:39:18;;;;;;;5.63;2.35;;;4.90;98.00;;;;;;4970970;28;20246;-76
2021/11/28 15:41:46;;;;;;;8.98;3.95;;;4.80;98.20;;;;;;4970921;28;20051;-75
2021/11/28 15:44:14;;;;;;;17.30;8.13;;;4.80;98.30;;;;;;4970784;28;20057;-76
2021/11/28 15:46:41;;;;;;;13.93;7.05;;;4.90;98.40;;;;;;4971538;28;20162;-76
2021/11/28 15:49:08;;;;;;;11.60;4.82;;;4.90;98.40;;;;;;4971876;28;20093;-76
2021/11/28 15:51:36;;;;;;;8.23;3.35;;;4.90;98.70;;;;;;4971193;28;20082;-76
2021/11/28 15:54:04;;;;;;;4.95;2.65;;;4.90;98.40;;;;;;4970346;28;20133;-77
2021/11/28 15:56:31;;;;;;;5.15;2.47;;;4.90;98.40;;;;;;4959577;28;20082;-76
2021/11/28 15:58:58;;;;;;;4.65;2.22;;;4.80;98.50;;;;;;4971054;28;20053;-75
2021/11/28 16:01:29;;;;;;;5.88;2.30;;;4.80;98.50;;;;;;4970926;28;20050;-75
2021/11/28 16:03:57;;;;;;;4.15;2.20;;;4.80;98.60;;;;;;4970757;28;20154;-76
2021/11/28 16:06:24;;;;;;;4.70;2.47;;;4.80;98.60;;;;;;4972330;28;20054;-76
2021/11/28 16:08:52;;;;;;;4.60;2.50;;;4.80;98.70;;;;;;4969053;28;20074;-76
2021/11/28 16:11:21;;;;;;;4.70;2.50;;;4.80;98.70;;;;;;4970424;28;20085;-77
2021/11/28 16:13:49;;;;;;;4.90;2.60;;;4.80;98.80;;;;;;4970240;28;20051;-77
2021/11/28 16:16:17;;;;;;;5.28;2.80;;;4.80;98.80;;;;;;4969634;28;20623;-78
2021/11/28 16:18:45;;;;;;;4.38;2.20;;;4.80;98.80;;;;;;4968770;28;20042;-76
2021/11/28 16:21:12;;;;;;;6.90;2.47;;;4.70;98.80;;;;;;4967997;28;20050;-77
2021/11/28 16:23:40;;;;;;;4.70;2.60;;;4.70;98.90;;;;;;4970200;28;20078;-78
2021/11/28 16:26:07;;;;;;;5.05;2.70;;;4.70;98.90;;;;;;4973198;28;20065;-79
2021/11/28 16:28:34;;;;;;;5.22;2.47;;;4.70;99.00;;;;;;4970159;28;20488;-79
2021/11/28 16:31:01;;;;;;;4.97;2.70;;;4.70;99.00;;;;;;4969487;28;20122;-78
2021/11/28 16:33:28;;;;;;;7.07;2.80;;;4.70;99.10;;;;;;4969762;28;20043;-77
2021/11/28 16:35:57;;;;;;;4.50;2.33;;;4.60;99.40;;;;;;4969984;28;20130;-76
2021/11/28 16:38:24;;;;;;;5.15;2.47;;;4.50;99.30;;;;;;4967360;28;20054;-75
2021/11/28 16:40:51;;;;;;;4.75;2.70;;;4.50;99.40;;;;;;4970554;28;20054;-77
2021/11/28 16:43:18;;;;;;;5.38;3.17;;;4.40;99.50;;;;;;4971353;28;20046;-77
2021/11/28 16:45:47;;;;;;;6.88;3.20;;;4.40;99.60;;;;;;4970298;28;20146;-76
2021/11/28 16:48:16;;;;;;;6.93;3.28;;;4.40;99.60;;;;;;4968951;28;20169;-76
2021/11/28 16:50:44;;;;;;;5.28;3.15;;;4.30;99.60;;;;;;4969415;28;20047;-79
2021/11/28 16:53:12;;;;;;;6.18;3.03;;;4.30;99.70;;;;;;4969242;28;20126;-76
2021/11/28 16:55:41;;;;;;;5.68;3.08;;;4.30;99.80;;;;;;4969746;28;20051;-80
2021/11/28 16:58:10;;;;;;;5.60;3.05;;;4.30;99.80;;;;;;4969598;28;20141;-77
2021/11/28 17:00:40;;;;;;;6.18;3.03;;;4.30;99.90;;;;;;4968831;28;20054;-77
2021/11/28 17:03:07;;;;;;;6.15;3.10;;;4.20;99.90;;;;;;4969641;28;20039;-78
2021/11/28 17:05:35;;;;;;;6.80;3.92;;;4.20;99.90;;;;;;4952216;28;20057;-77
2021/11/28 17:08:02;;;;;;;7.82;4.70;;;4.20;99.80;;;;;;4967448;28;20403;-77
2021/11/28 17:10:33;;;;;;;7.20;4.40;;;4.10;99.70;;;;;;4960141;28;20058;-79
2021/11/28 17:13:00;;;;;;;14.10;7.50;;;4.10;99.80;;;;;;4963135;28;20055;-78
2021/11/28 17:15:28;;;;;;;17.83;9.43;;;3.90;99.90;;;;;;4970218;28;20081;-76
2021/11/28 17:17:55;;;;;;;35.58;18.40;;;3.80;99.90;;;;;;4950369;28;20118;-78
2021/11/28 17:20:25;;;;;;;27.33;14.48;;;3.70;99.90;;;;;;4968124;28;20134;-79
2021/11/28 17:22:53;;;;;;;20.48;11.10;;;3.60;99.90;;;;;;4967991;28;20090;-80
2021/11/28 17:25:21;;;;;;;19.20;10.07;;;3.60;99.90;;;;;;4969933;28;20050;-79
2021/11/28 17:27:50;;;;;;;15.93;8.73;;;3.60;99.90;;;;;;4980236;28;20061;-78
2021/11/28 17:30:18;;;;;;;17.70;9.18;;;3.50;99.90;;;;;;4952150;28;20086;-78
2021/11/28 17:32:46;;;;;;;13.82;7.38;;;3.50;99.90;;;;;;4968255;28;20092;-78
2021/11/28 17:35:14;;;;;;;12.82;6.93;;;3.60;99.90;;;;;;4968920;28;20038;-77
2021/11/28 17:37:41;;;;;;;13.10;6.72;;;3.60;99.90;;;;;;4968903;28;20058;-78
2021/11/28 17:40:10;;;;;;;10.88;6.40;;;3.60;99.90;;;;;;4968347;28;20054;-78
2021/11/28 17:42:39;;;;;;;11.07;6.05;;;3.60;99.90;;;;;;4968835;28;20057;-78
2021/11/28 17:45:13;;;;;;;12.07;6.65;;;3.70;99.90;;;;;;4968264;28;20145;-78
2021/11/28 17:47:42;;;;;;;12.30;6.43;;;3.70;99.90;;;;;;4961324;28;20055;-79
2021/11/28 17:50:11;;;;;;;11.45;6.60;;;3.70;99.90;;;;;;4966724;28;20055;-77
2021/11/28 17:52:39;;;;;;;9.90;6.07;;;3.70;99.90;;;;;;4968591;28;20496;-78
2021/11/28 17:55:08;;;;;;;12.20;6.60;;;3.70;99.90;;;;;;4968430;28;20074;-78
2021/11/28 17:57:36;;;;;;;10.77;5.68;;;3.70;99.90;;;;;;4969464;28;20141;-78
2021/11/28 18:00:04;;;;;;;11.88;6.15;;;3.70;99.90;;;;;;4969255;28;20125;-76
2021/11/28 18:02:33;;;;;;;10.82;5.80;;;3.60;99.90;;;;;;4968382;28;20487;-78
2021/11/28 18:05:00;;;;;;;9.85;5.90;;;3.60;99.90;;;;;;4968561;28;20493;-77
2021/11/28 18:07:27;;;;;;;10.88;5.90;;;3.60;99.90;;;;;;4967762;28;20050;-78
2021/11/28 18:09:54;;;;;;;11.48;6.55;;;3.60;99.90;;;;;;4967743;28;20073;-76
2021/11/28 18:12:23;;;;;;;10.95;6.30;;;3.60;99.90;;;;;;4968460;28;20073;-77
2021/11/28 18:14:50;;;;;;;11.02;6.75;;;3.60;99.90;;;;;;4968542;28;20047;-78
2021/11/28 18:17:18;;;;;;;14.55;7.10;;;3.60;99.90;;;;;;4966358;28;20158;-79
2021/11/28 18:19:46;;;;;;;11.95;7.05;;;3.60;99.90;;;;;;4966045;28;20133;-79
2021/11/28 18:22:14;;;;;;;12.20;7.32;;;3.60;99.90;;;;;;4968463;28;20053;-78
2021/11/28 18:24:42;;;;;;;12.18;6.90;;;3.60;99.90;;;;;;4968887;28;20263;-79
2021/11/28 18:27:09;;;;;;;12.88;6.40;;;3.60;99.90;;;;;;4967156;28;20481;-78
2021/11/28 18:29:37;;;;;;;12.02;6.28;;;3.60;99.90;;;;;;4968358;28;20145;-76
2021/11/28 18:32:06;;;;;;;12.65;6.70;;;3.60;99.90;;;;;;4968523;28;20046;-76
2021/11/28 18:34:34;;;;;;;12.38;7.15;;;3.60;99.90;;;;;;4969090;28;20153;-75
2021/11/28 18:37:03;;;;;;;17.90;9.45;;;3.60;99.90;;;;;;4968409;28;20050;-77
2021/11/28 18:39:30;;;;;;;12.60;7.25;;;3.50;99.90;;;;;;4970266;28;20134;-76
2021/11/28 18:41:57;;;;;;;12.98;7.35;;;3.60;99.90;;;;;;4953372;28;20086;-77
2021/11/28 18:44:25;;;;;;;17.23;8.80;;;3.50;99.90;;;;;;4968923;28;20053;-77
2021/11/28 18:46:52;;;;;;;15.93;8.48;;;3.50;99.90;;;;;;4965482;28;20046;-77
2021/11/28 18:49:19;;;;;;;15.98;8.23;;;3.50;99.90;;;;;;4972987;28;20146;-77
2021/11/28 18:51:46;;;;;;;13.95;7.90;;;3.50;99.90;;;;;;4975879;28;20089;-77
2021/11/28 18:54:16;;;;;;;14.25;7.90;;;3.50;99.90;;;;;;4960464;28;20049;-77
2021/11/28 18:56:44;;;;;;;12.65;7.63;;;3.50;99.90;;;;;;4968275;28;20503;-77
2021/11/28 18:59:11;;;;;;;12.23;7.07;;;3.50;99.90;;;;;;4965147;28;20133;-76
2021/11/28 19:01:38;;;;;;;12.20;7.35;;;3.40;99.90;;;;;;4959833;28;20485;-79
2021/11/28 19:04:06;;;;;;;11.90;7.10;;;3.50;99.90;;;;;;4969032;28;20062;-78
2021/11/28 19:06:36;;;;;;;12.23;7.05;;;3.50;99.90;;;;;;4962203;28;20047;-79
2021/11/28 19:09:05;;;;;;;14.48;8.18;;;3.50;99.90;;;;;;4966340;28;20572;-77
2021/11/28 19:11:35;;;;;;;12.43;7.78;;;3.50;99.90;;;;;;4967831;28;20054;-78